createdAt,value
2022-07-29T00:00:56.166Z,101419.94
2022-07-29T00:02:57.967Z,101434.47
2022-07-29T00:05:00.140Z,101419.09
2022-07-29T00:07:02.140Z,101414.34
2022-07-29T00:09:03.999Z,101431.09
2022-07-29T00:11:05.775Z,101413.66
2022-07-29T00:13:07.815Z,101431.59
2022-07-29T00:15:09.735Z,101438.06
2022-07-29T00:17:11.436Z,101416.91
2022-07-29T00:19:13.330Z,101436.31
2022-07-29T00:21:15.094Z,101432.44
2022-07-29T00:23:16.823Z,101436.22
2022-07-29T00:25:18.878Z,101329.69
2022-07-29T00:27:20.606Z,101438.28
2022-07-29T00:29:37.633Z,101427.50
2022-07-29T00:31:39.675Z,101428.09
2022-07-29T00:33:41.433Z,101443.38
2022-07-29T00:35:43.221Z,101446.66
2022-07-29T00:37:45.101Z,101446.69
2022-07-29T00:39:46.859Z,101427.94
2022-07-29T00:41:48.766Z,101444.88
2022-07-29T00:43:50.848Z,101423.75
2022-07-29T00:45:52.633Z,101451.75
2022-07-29T00:47:54.416Z,101431.41
2022-07-29T00:49:56.402Z,101430.22
2022-07-29T00:51:58.635Z,101425.38
2022-07-29T00:54:00.451Z,101451.19
2022-07-29T00:56:02.485Z,101453.69
2022-07-29T00:58:04.715Z,101454.16
2022-07-29T01:00:08.740Z,101449.41
2022-07-29T01:02:11.078Z,101448.53
2022-07-29T01:04:13.234Z,101428.19
2022-07-29T01:06:19.166Z,101438.72
2022-07-29T01:08:21.996Z,101448.72
2022-07-29T01:10:24.613Z,101449.72
2022-07-29T01:12:28.258Z,101442.19
2022-07-29T01:14:30.336Z,101446.47
2022-07-29T01:16:35.012Z,101451.41
2022-07-29T01:18:43.310Z,101448.25
2022-07-29T01:21:04.016Z,101445.09
2022-07-29T01:23:12.342Z,101450.19
2022-07-29T01:25:29.415Z,101452.84
2022-07-29T01:27:48.857Z,101421.47
2022-07-29T01:29:56.397Z,101440.28
2022-07-29T01:32:08.392Z,101432.72
2022-07-29T01:34:31.142Z,101446.47
2022-07-29T01:36:46.574Z,101448.28
2022-07-29T01:38:57.768Z,101443.25
2022-07-29T01:41:17.944Z,101442.94
2022-07-29T01:43:32.386Z,101432.13
2022-07-29T01:45:42.913Z,101420.63
2022-07-29T01:48:15.988Z,101450.97
2022-07-29T01:50:21.678Z,101430.47
2022-07-29T01:52:40.697Z,101446.91
2022-07-29T01:54:52.673Z,101451.19
2022-07-29T01:56:57.781Z,101450.69
2022-07-29T01:59:00.027Z,101446.59
2022-07-29T02:01:04.000Z,101445.13
2022-07-29T02:03:08.549Z,101445.13
2022-07-29T02:05:11.646Z,101448.78
2022-07-29T02:07:19.242Z,101422.81
2022-07-29T02:09:23.005Z,101438.94
2022-07-29T02:11:24.603Z,101440.03
2022-07-29T02:13:28.969Z,101443.91
2022-07-29T02:15:34.057Z,101433.19
2022-07-29T02:17:43.507Z,101442.94
2022-07-29T02:19:46.945Z,101419.94
2022-07-29T02:21:50.079Z,101441.19
2022-07-29T02:23:53.475Z,101446.44
2022-07-29T02:25:57.966Z,101447.16
2022-07-29T02:28:00.758Z,101444.75
2022-07-29T02:30:05.041Z,101443.06
2022-07-29T02:32:11.692Z,101436.91
2022-07-29T02:34:16.305Z,101429.88
2022-07-29T02:36:24.483Z,101414.34
2022-07-29T02:38:28.340Z,101424.06
2022-07-29T02:40:30.206Z,101442.53
2022-07-29T02:42:33.372Z,101437.50
2022-07-29T02:44:35.918Z,101418.09
2022-07-29T02:46:42.851Z,101423.91
2022-07-29T02:49:05.362Z,101446.78
2022-07-29T02:51:13.270Z,101437.69
2022-07-29T02:53:36.564Z,101448.22
2022-07-29T02:56:00.066Z,101449.72
2022-07-29T02:58:14.592Z,101428.78
2022-07-29T03:00:17.135Z,101448.22
2022-07-29T03:02:20.560Z,101443.06
2022-07-29T03:04:24.698Z,101436.91
2022-07-29T03:06:38.020Z,101442.75
2022-07-29T03:08:41.205Z,101425.81
2022-07-29T03:10:46.492Z,101430.22
2022-07-29T03:12:49.743Z,101432.75
2022-07-29T03:14:52.533Z,101419.03
2022-07-29T03:16:55.052Z,101433.44
2022-07-29T03:18:57.554Z,101434.44
2022-07-29T03:20:59.642Z,101435.16
2022-07-29T03:23:01.608Z,101436.84
2022-07-29T03:25:13.905Z,101446.84
2022-07-29T03:27:15.720Z,101450.34
2022-07-29T03:29:17.934Z,101449.22
2022-07-29T03:31:21.837Z,101440.81
2022-07-29T03:33:23.633Z,101444.31
2022-07-29T03:35:25.737Z,101439.38
2022-07-29T03:37:27.512Z,101451.00
2022-07-29T03:39:34.287Z,101444.28
2022-07-29T03:41:39.092Z,101449.81
2022-07-29T03:43:49.615Z,101449.22
2022-07-29T03:45:55.540Z,101449.91
2022-07-29T03:48:06.710Z,101449.25
2022-07-29T03:50:11.589Z,101444.88
2022-07-29T03:52:13.688Z,101417.66
2022-07-29T03:54:16.122Z,101432.13
2022-07-29T03:56:22.039Z,101453.31
2022-07-29T03:58:26.293Z,101407.78
2022-07-29T04:00:28.920Z,101448.97
2022-07-29T04:02:31.507Z,101444.00
2022-07-29T04:04:36.865Z,101419.72
2022-07-29T04:06:48.348Z,101446.38
2022-07-29T04:08:50.257Z,101443.72
2022-07-29T04:10:52.067Z,101444.25
2022-07-29T04:12:54.121Z,101435.34
2022-07-29T04:14:55.857Z,101455.50
2022-07-29T04:16:57.651Z,101456.63
2022-07-29T04:19:00.334Z,101461.97
2022-07-29T04:21:02.226Z,101454.22
2022-07-29T04:23:04.014Z,101457.97
2022-07-29T04:25:06.484Z,101469.06
2022-07-29T04:27:08.244Z,101455.16
2022-07-29T04:29:10.324Z,101439.63
2022-07-29T04:31:12.926Z,101456.38
2022-07-29T04:33:14.722Z,101458.75
2022-07-29T04:35:16.440Z,101463.44
2022-07-29T04:37:18.531Z,101467.63
2022-07-29T04:39:22.956Z,101486.22
2022-07-29T04:41:32.655Z,101475.53
2022-07-29T04:43:37.038Z,101456.75
2022-07-29T04:45:38.715Z,101476.34
2022-07-29T04:47:40.504Z,101480.66
2022-07-29T04:49:42.785Z,101481.28
2022-07-29T04:51:44.627Z,101465.66
2022-07-29T04:53:46.323Z,101474.34
2022-07-29T04:55:48.346Z,101472.91
2022-07-29T04:57:50.379Z,101472.94
2022-07-29T04:59:52.089Z,101467.03
2022-07-29T05:01:54.092Z,101464.41
2022-07-29T05:04:00.148Z,101475.56
2022-07-29T05:06:02.346Z,101470.31
2022-07-29T05:08:04.687Z,101480.56
2022-07-29T05:10:06.729Z,101466.50
2022-07-29T05:12:08.750Z,101483.03
2022-07-29T05:14:10.998Z,101478.94
2022-07-29T05:16:13.098Z,101470.50
2022-07-29T05:18:14.894Z,101477.25
2022-07-29T05:20:16.894Z,101475.88
2022-07-29T05:22:20.334Z,101472.13
2022-07-29T05:24:22.071Z,101485.97
2022-07-29T05:26:23.958Z,101474.66
2022-07-29T05:28:25.759Z,101470.31
2022-07-29T05:30:27.492Z,101475.88
2022-07-29T05:32:29.479Z,101475.78
2022-07-29T05:34:31.471Z,101478.97
2022-07-29T05:36:33.193Z,101478.91
2022-07-29T05:38:36.356Z,101474.53
2022-07-29T05:40:38.184Z,101460.63
2022-07-29T05:42:39.958Z,101470.41
2022-07-29T05:44:41.910Z,101441.09
2022-07-29T05:46:43.937Z,101470.44
2022-07-29T05:48:46.628Z,101471.97
2022-07-29T05:50:48.653Z,101471.91
2022-07-29T05:52:50.397Z,101469.81
2022-07-29T05:54:52.191Z,101484.06
2022-07-29T05:56:54.125Z,101463.81
2022-07-29T05:58:55.981Z,101473.53
2022-07-29T06:00:57.726Z,101452.09
2022-07-29T06:02:59.744Z,101453.28
2022-07-29T06:05:01.699Z,101452.19
2022-07-29T06:07:03.882Z,101473.25
2022-07-29T06:09:12.126Z,101473.34
2022-07-29T06:11:14.884Z,101460.25
2022-07-29T06:13:16.635Z,101472.16
2022-07-29T06:15:18.499Z,101463.44
2022-07-29T06:17:20.341Z,101463.44
2022-07-29T06:19:22.227Z,101468.06
2022-07-29T06:21:24.118Z,101449.50
2022-07-29T06:23:25.965Z,101472.91
2022-07-29T06:25:28.575Z,101473.09
2022-07-29T06:27:30.474Z,101464.59
2022-07-29T06:29:32.449Z,101444.19
2022-07-29T06:31:34.215Z,101461.34
2022-07-29T06:33:36.151Z,101465.09
2022-07-29T06:35:41.769Z,101467.88
2022-07-29T06:37:44.329Z,101462.97
2022-07-29T06:39:48.469Z,101449.34
2022-07-29T06:41:51.264Z,101473.72
2022-07-29T06:43:55.338Z,101472.41
2022-07-29T06:46:09.342Z,101473.50
2022-07-29T06:48:11.329Z,101464.22
2022-07-29T06:50:13.095Z,101462.78
2022-07-29T06:52:15.030Z,101467.41
2022-07-29T06:54:17.407Z,101457.41
2022-07-29T06:56:19.284Z,101467.66
2022-07-29T06:58:21.186Z,101466.00
2022-07-29T07:00:23.453Z,101448.00
2022-07-29T07:02:25.413Z,101463.06
2022-07-29T07:04:27.418Z,101459.69
2022-07-29T07:06:29.293Z,101465.22
2022-07-29T07:08:31.092Z,101453.25
2022-07-29T07:10:33.867Z,101435.28
2022-07-29T07:12:35.896Z,101453.44
2022-07-29T07:14:37.664Z,101448.28
2022-07-29T07:16:39.771Z,101434.28
2022-07-29T07:18:41.679Z,101444.59
2022-07-29T07:20:43.561Z,101459.88
2022-07-29T07:22:45.382Z,101436.09
2022-07-29T07:24:47.301Z,101439.25
2022-07-29T07:26:49.032Z,101455.84
2022-07-29T07:28:51.016Z,101449.47
2022-07-29T07:30:53.346Z,101452.47
2022-07-29T07:32:56.035Z,101452.47
2022-07-29T07:34:57.841Z,101455.59
2022-07-29T07:37:00.972Z,101445.25
2022-07-29T07:39:02.892Z,101445.69
2022-07-29T07:41:05.499Z,101454.78
2022-07-29T07:43:07.381Z,101455.38
2022-07-29T07:45:15.839Z,101454.91
2022-07-29T07:47:18.871Z,101454.38
2022-07-29T07:49:20.864Z,101446.63
2022-07-29T07:51:22.610Z,101423.34
2022-07-29T07:53:24.429Z,101425.66
2022-07-29T07:55:27.171Z,101420.38
2022-07-29T07:57:28.918Z,101431.97
2022-07-29T07:59:31.382Z,101451.38
2022-07-29T08:01:49.976Z,101440.25
2022-07-29T08:03:54.975Z,101442.97
2022-07-29T08:05:56.862Z,101446.53
2022-07-29T08:07:58.644Z,101426.88
2022-07-29T08:10:00.448Z,101442.84
2022-07-29T08:12:02.708Z,101442.97
2022-07-29T08:14:04.521Z,101429.03
2022-07-29T08:16:06.880Z,101439.34
2022-07-29T08:18:09.075Z,101445.00
2022-07-29T08:20:11.262Z,101449.22
2022-07-29T08:22:12.997Z,101428.19
2022-07-29T08:24:14.741Z,101451.38
2022-07-29T08:26:16.699Z,101449.38
2022-07-29T08:28:18.720Z,101436.44
2022-07-29T08:30:20.496Z,101430.09
2022-07-29T08:32:43.504Z,101448.28
2022-07-29T08:34:44.097Z,101384.41
2022-07-29T08:36:45.858Z,101456.16
2022-07-29T08:38:52.823Z,101455.69
2022-07-29T08:40:54.649Z,101453.50
2022-07-29T08:42:56.653Z,101443.84
2022-07-29T08:44:59.521Z,101440.75
2022-07-29T08:47:01.409Z,101453.88
2022-07-29T08:49:03.529Z,101446.13
2022-07-29T08:51:08.521Z,101439.47
2022-07-29T08:53:14.669Z,101445.38
2022-07-29T08:55:17.114Z,101445.03
2022-07-29T08:57:24.181Z,101427.75
2022-07-29T08:59:31.325Z,101449.63
2022-07-29T09:01:35.985Z,101453.03
2022-07-29T09:03:45.518Z,101434.03
2022-07-29T09:05:48.708Z,101431.44
2022-07-29T09:07:50.934Z,101430.25
2022-07-29T09:09:52.865Z,101440.47
2022-07-29T09:11:58.903Z,101433.50
2022-07-29T09:14:00.758Z,101422.03
2022-07-29T09:16:07.064Z,101419.44
2022-07-29T09:18:19.761Z,101405.94
2022-07-29T09:20:32.249Z,101402.97
2022-07-29T09:22:36.682Z,101405.41
2022-07-29T09:24:48.376Z,101432.28
2022-07-29T09:26:50.189Z,101422.72
2022-07-29T09:28:52.173Z,101421.91
2022-07-29T09:30:56.187Z,101423.22
2022-07-29T09:32:59.998Z,101414.84
2022-07-29T09:35:25.819Z,101430.59
2022-07-29T09:37:29.139Z,101403.19
2022-07-29T09:39:38.192Z,101422.94
2022-07-29T09:41:50.511Z,101361.53
2022-07-29T09:43:56.871Z,101410.50
2022-07-29T09:46:12.317Z,101400.91
2022-07-29T09:48:16.867Z,101400.41
2022-07-29T09:50:18.827Z,101404.91
2022-07-29T09:52:22.751Z,101370.66
2022-07-29T09:54:26.108Z,101404.16
2022-07-29T09:56:43.587Z,101397.78
2022-07-29T09:58:45.360Z,101404.03
2022-07-29T10:00:51.460Z,101396.84
2022-07-29T10:03:01.209Z,101413.75
2022-07-29T10:05:05.683Z,101417.75
2022-07-29T10:07:07.702Z,101417.38
2022-07-29T10:09:11.350Z,101402.88
2022-07-29T10:11:18.376Z,101419.72
2022-07-29T10:13:20.423Z,101389.44
2022-07-29T10:15:26.126Z,101406.16
2022-07-29T10:17:28.085Z,101404.13
2022-07-29T10:19:31.413Z,101395.78
2022-07-29T10:21:35.849Z,101393.59
2022-07-29T10:23:46.922Z,101389.44
2022-07-29T10:25:49.417Z,101390.53
2022-07-29T10:27:52.002Z,101366.63
2022-07-29T10:29:55.181Z,101371.88
2022-07-29T10:32:06.021Z,101384.69
2022-07-29T10:34:35.585Z,101386.63
2022-07-29T10:37:25.717Z,101385.91
2022-07-29T10:39:45.243Z,101382.63
2022-07-29T10:42:00.197Z,101388.16
2022-07-29T10:44:07.912Z,101380.44
2022-07-29T10:46:12.456Z,101374.50
2022-07-29T10:48:14.962Z,101383.56
2022-07-29T10:50:17.305Z,101383.03
2022-07-29T10:52:19.354Z,101378.66
2022-07-29T10:54:39.647Z,101378.88
2022-07-29T10:56:44.586Z,101380.47
2022-07-29T10:59:20.284Z,101370.13
2022-07-29T11:01:37.397Z,101373.94
2022-07-29T11:03:52.338Z,101348.63
2022-07-29T11:05:56.444Z,101358.75
2022-07-29T11:10:38.325Z,101358.25
2022-07-29T11:12:43.522Z,101355.09
2022-07-29T11:15:00.990Z,101351.84
2022-07-29T11:17:06.080Z,101350.00
2022-07-29T11:19:11.610Z,101339.66
2022-07-29T11:21:54.114Z,101333.94
2022-07-29T11:24:28.968Z,101339.66
2022-07-29T11:26:31.313Z,101331.16
2022-07-29T11:28:37.161Z,101343.69
2022-07-29T11:30:55.026Z,101347.16
2022-07-29T11:32:56.831Z,101358.72
2022-07-29T11:35:19.171Z,101350.69
2022-07-29T11:37:28.371Z,101366.66
2022-07-29T11:39:37.059Z,101357.31
2022-07-29T11:41:39.348Z,101356.81
2022-07-29T11:46:10.626Z,101357.56
2022-07-29T11:48:28.406Z,101349.09
2022-07-29T11:50:38.166Z,101347.81
2022-07-29T11:52:49.654Z,101343.19
2022-07-29T11:54:58.149Z,101350.53
2022-07-29T11:57:02.770Z,101337.41
2022-07-29T11:59:08.498Z,101346.44
2022-07-29T12:01:14.776Z,101351.97
2022-07-29T12:05:51.831Z,101338.84
2022-07-29T12:07:53.828Z,101343.03
2022-07-29T12:09:56.963Z,101347.34
2022-07-29T12:12:04.651Z,101351.03
2022-07-29T12:14:07.250Z,101346.91
2022-07-29T12:16:09.057Z,101338.13
2022-07-29T12:18:18.987Z,101334.06
2022-07-29T12:20:31.183Z,101336.44
2022-07-29T12:22:38.808Z,101330.66
2022-07-29T12:24:45.179Z,101320.25
2022-07-29T12:26:50.853Z,101311.69
2022-07-29T12:28:53.537Z,101318.34
2022-07-29T12:30:56.545Z,101297.88
2022-07-29T12:32:58.350Z,101321.31
2022-07-29T12:35:03.032Z,101302.03
2022-07-29T12:37:04.981Z,101316.00
2022-07-29T12:39:06.929Z,101317.91
2022-07-29T12:41:08.918Z,101314.25
2022-07-29T12:43:22.207Z,101316.19
2022-07-29T12:45:30.852Z,101306.78
2022-07-29T12:47:33.838Z,101303.47
2022-07-29T12:49:38.048Z,101307.75
2022-07-29T12:51:41.009Z,101295.94
2022-07-29T12:53:43.264Z,101301.50
2022-07-29T12:55:47.771Z,101298.78
2022-07-29T12:57:51.742Z,101288.53
2022-07-29T13:00:09.892Z,101291.31
2022-07-29T13:02:22.898Z,101292.16
2022-07-29T13:04:32.750Z,101283.44
2022-07-29T13:06:45.905Z,101282.81
2022-07-29T13:09:00.340Z,101273.44
2022-07-29T13:11:02.320Z,101255.09
2022-07-29T13:13:09.548Z,101259.81
2022-07-29T13:15:15.976Z,101262.91
2022-07-29T13:17:23.274Z,101268.22
2022-07-29T13:19:44.015Z,101263.75
2022-07-29T13:21:46.590Z,101268.34
2022-07-29T13:23:48.367Z,101267.75
2022-07-29T13:25:51.247Z,101261.00
2022-07-29T13:27:53.123Z,101263.47
2022-07-29T13:29:57.108Z,101259.47
2022-07-29T13:31:59.295Z,101261.94
2022-07-29T13:34:01.338Z,101264.22
2022-07-29T13:36:03.090Z,101259.97
2022-07-29T13:38:04.898Z,101260.19
2022-07-29T13:40:08.962Z,101252.59
2022-07-29T13:42:11.227Z,101254.09
2022-07-29T13:44:13.077Z,101262.06
2022-07-29T13:46:14.948Z,101252.00
2022-07-29T13:48:16.935Z,101255.84
2022-07-29T13:50:18.986Z,101252.59
2022-07-29T13:52:21.141Z,101256.03
2022-07-29T13:54:23.297Z,101233.06
2022-07-29T13:56:25.291Z,101231.25
2022-07-29T13:58:27.245Z,101250.16
2022-07-29T14:00:29.566Z,101257.09
2022-07-29T14:02:31.545Z,101234.69
2022-07-29T14:04:34.735Z,101227.75
2022-07-29T14:06:36.641Z,101252.50
2022-07-29T14:08:42.495Z,101225.25
2022-07-29T14:10:44.610Z,101245.22
2022-07-29T14:12:46.347Z,101237.63
2022-07-29T14:14:48.249Z,101249.22
2022-07-29T14:16:52.331Z,101235.16
2022-07-29T14:18:54.291Z,101249.19
2022-07-29T14:20:56.316Z,101241.78
2022-07-29T14:22:58.074Z,101250.03
2022-07-29T14:25:02.340Z,101255.31
2022-07-29T14:27:17.276Z,101250.34
2022-07-29T14:29:19.017Z,101245.03
2022-07-29T14:31:20.785Z,101220.22
2022-07-29T14:33:22.601Z,101216.66
2022-07-29T14:35:24.433Z,101245.28
2022-07-29T14:37:26.163Z,101237.25
2022-07-29T14:39:31.693Z,101224.25
2022-07-29T14:41:34.110Z,101234.16
2022-07-29T14:43:36.041Z,101228.00
2022-07-29T14:45:38.020Z,101225.69
2022-07-29T14:47:40.582Z,101229.19
2022-07-29T14:49:42.298Z,101198.69
2022-07-29T14:51:44.170Z,101228.53
2022-07-29T14:53:45.945Z,101210.56
2022-07-29T14:55:47.684Z,101198.59
2022-07-29T14:57:50.006Z,101220.84
2022-07-29T14:59:52.416Z,101214.72
2022-07-29T15:01:54.354Z,101214.88
2022-07-29T15:03:59.674Z,101201.56
2022-07-29T15:06:01.807Z,101209.31
2022-07-29T15:08:04.299Z,101200.09
2022-07-29T15:10:06.930Z,101193.63
2022-07-29T15:12:10.123Z,101203.56
2022-07-29T15:14:12.121Z,101205.53
2022-07-29T15:16:14.226Z,101204.19
2022-07-29T15:18:15.987Z,101202.66
2022-07-29T15:20:27.875Z,101191.94
2022-07-29T15:22:29.804Z,101197.06
2022-07-29T15:24:32.137Z,101180.03
2022-07-29T15:26:34.307Z,101177.78
2022-07-29T15:28:36.624Z,101194.47
2022-07-29T15:30:38.393Z,101187.59
2022-07-29T15:32:40.104Z,101177.22
2022-07-29T15:34:42.352Z,101185.34
2022-07-29T15:36:52.510Z,101175.16
2022-07-29T15:38:56.677Z,101182.75
2022-07-29T15:40:58.656Z,101187.25
2022-07-29T15:43:00.442Z,101178.63
2022-07-29T15:45:02.364Z,101174.84
2022-07-29T15:47:06.048Z,101173.66
2022-07-29T15:49:08.490Z,101175.69
2022-07-29T15:51:10.491Z,101153.00
2022-07-29T15:53:15.096Z,101170.94
2022-07-29T15:55:18.542Z,101165.28
2022-07-29T15:57:23.259Z,101167.78
2022-07-29T15:59:27.810Z,101174.84
2022-07-29T16:01:30.761Z,101145.84
2022-07-29T16:03:32.912Z,101178.78
2022-07-29T16:05:36.437Z,101154.59
2022-07-29T16:07:39.938Z,101157.59
2022-07-29T16:09:46.243Z,101166.53
2022-07-29T16:11:52.952Z,101166.69
2022-07-29T16:13:54.747Z,101166.47
2022-07-29T16:16:02.695Z,101159.38
2022-07-29T16:18:05.399Z,101169.56
2022-07-29T16:20:07.837Z,101160.38
2022-07-29T16:22:10.191Z,101164.31
2022-07-29T16:24:12.328Z,101158.78
2022-07-29T16:26:14.282Z,101158.56
2022-07-29T16:28:16.061Z,101163.59
2022-07-29T16:30:18.125Z,101164.22
2022-07-29T16:32:22.144Z,101162.50
2022-07-29T16:34:24.308Z,101156.31
2022-07-29T16:36:26.075Z,101164.53
2022-07-29T16:38:27.871Z,101165.41
2022-07-29T16:40:29.683Z,101167.28
2022-07-29T16:42:46.162Z,101168.81
2022-07-29T16:44:48.914Z,101170.09
2022-07-29T16:46:51.863Z,101163.53
2022-07-29T16:48:57.808Z,101164.47
2022-07-29T16:50:59.695Z,101167.63
2022-07-29T16:53:01.525Z,101163.47
2022-07-29T16:55:04.435Z,101151.81
2022-07-29T16:57:06.176Z,101180.56
2022-07-29T16:59:07.927Z,101179.78
2022-07-29T17:01:10.133Z,101184.97
2022-07-29T17:03:12.803Z,101169.97
2022-07-29T17:05:15.742Z,101182.09
2022-07-29T17:07:17.768Z,101178.94
2022-07-29T17:09:19.753Z,101161.44
2022-07-29T17:11:21.454Z,101182.09
2022-07-29T17:13:43.707Z,101160.69
2022-07-29T17:15:45.464Z,101180.31
2022-07-29T17:17:56.513Z,101182.91
2022-07-29T17:19:58.966Z,101178.81
2022-07-29T17:22:19.572Z,101169.56
2022-07-29T17:24:21.459Z,101191.47
2022-07-29T17:26:23.320Z,101183.47
2022-07-29T17:28:25.053Z,101165.28
2022-07-29T17:30:26.978Z,101179.16
2022-07-29T17:32:28.969Z,101186.06
2022-07-29T17:34:31.142Z,101188.72
2022-07-29T17:36:33.071Z,101177.56
2022-07-29T17:38:35.525Z,101183.63
2022-07-29T17:40:37.273Z,101188.00
2022-07-29T17:42:39.045Z,101180.81
2022-07-29T17:44:41.613Z,101166.09
2022-07-29T17:46:43.392Z,101187.06
2022-07-29T17:48:45.556Z,101183.81
2022-07-29T17:50:48.311Z,101189.50
2022-07-29T17:52:50.063Z,101176.06
2022-07-29T17:54:51.846Z,101182.31
2022-07-29T17:56:53.846Z,101181.69
2022-07-29T17:58:55.625Z,101178.78
2022-07-29T18:00:58.797Z,101177.78
2022-07-29T18:03:00.857Z,101159.09
2022-07-29T18:05:02.645Z,101179.50
2022-07-29T18:07:04.460Z,101181.38
2022-07-29T18:09:06.262Z,101179.75
2022-07-29T18:11:08.078Z,101185.16
2022-07-29T18:13:16.837Z,101179.34
2022-07-29T18:15:18.857Z,101179.56
2022-07-29T18:17:20.607Z,101180.47
2022-07-29T18:19:22.397Z,101186.50
2022-07-29T18:21:37.601Z,101172.59
2022-07-29T18:23:46.067Z,101181.72
2022-07-29T18:25:47.989Z,101167.22
2022-07-29T18:27:50.482Z,101135.91
2022-07-29T18:29:55.285Z,101182.03
2022-07-29T18:31:57.079Z,101168.13
2022-07-29T18:34:00.157Z,101171.47
2022-07-29T18:36:11.195Z,101166.53
2022-07-29T18:38:14.130Z,101171.06
2022-07-29T18:40:16.006Z,101103.00
2022-07-29T18:42:17.727Z,101166.09
2022-07-29T18:44:20.374Z,101161.31
2022-07-29T18:46:24.225Z,101169.03
2022-07-29T18:48:27.446Z,101165.50
2022-07-29T18:50:30.034Z,101145.16
2022-07-29T18:52:32.230Z,101152.25
2022-07-29T18:54:34.217Z,101160.75
2022-07-29T18:56:36.463Z,101169.88
2022-07-29T18:58:38.410Z,101176.75
2022-07-29T19:00:40.226Z,101176.13
2022-07-29T19:02:43.473Z,101160.50
2022-07-29T19:04:45.380Z,101185.88
2022-07-29T19:06:47.194Z,101186.50
2022-07-29T19:08:48.925Z,101196.03
2022-07-29T19:10:50.886Z,101186.03
2022-07-29T19:12:52.683Z,101195.78
2022-07-29T19:14:54.558Z,101201.59
2022-07-29T19:16:56.681Z,101188.84
2022-07-29T19:18:58.694Z,101205.69
2022-07-29T19:21:00.478Z,101197.13
2022-07-29T19:23:02.398Z,101207.47
2022-07-29T19:25:04.522Z,101222.38
2022-07-29T19:27:06.442Z,101180.13
2022-07-29T19:29:09.222Z,101195.53
2022-07-29T19:31:11.025Z,101201.84
2022-07-29T19:33:12.816Z,101204.06
2022-07-29T19:35:14.698Z,101204.00
2022-07-29T19:37:16.448Z,101179.81
2022-07-29T19:39:18.212Z,101181.59
2022-07-29T19:41:36.639Z,101204.19
2022-07-29T19:43:52.030Z,101203.97
2022-07-29T19:45:54.816Z,101189.75
2022-07-29T19:48:01.329Z,101209.28
2022-07-29T19:50:03.938Z,101211.81
2022-07-29T19:52:06.081Z,101208.72
2022-07-29T19:54:08.208Z,101207.03
2022-07-29T19:56:11.289Z,101186.81
2022-07-29T19:58:13.097Z,101202.81
2022-07-29T20:00:16.283Z,101218.25
2022-07-29T20:02:18.481Z,101189.59
2022-07-29T20:04:20.343Z,101214.28
2022-07-29T20:06:22.117Z,101216.22
2022-07-29T20:08:23.986Z,101184.06
2022-07-29T20:10:26.042Z,101213.97
2022-07-29T20:12:27.987Z,101202.56
2022-07-29T20:14:29.869Z,101182.63
2022-07-29T20:16:32.243Z,101202.41
2022-07-29T20:18:35.078Z,101208.19
2022-07-29T20:20:36.856Z,101181.38
2022-07-29T20:22:38.678Z,101183.84
2022-07-29T20:24:40.800Z,101202.63
2022-07-29T20:26:43.791Z,101176.66
2022-07-29T20:28:49.313Z,101197.09
2022-07-29T20:30:51.761Z,101202.63
2022-07-29T20:32:53.526Z,101185.97
2022-07-29T20:34:55.246Z,101199.09
2022-07-29T20:36:58.498Z,101196.41
2022-07-29T20:39:00.534Z,101177.06
2022-07-29T20:41:02.282Z,101188.09
2022-07-29T20:43:04.176Z,101163.09
2022-07-29T20:45:08.720Z,101188.38
2022-07-29T20:47:10.608Z,101180.13
2022-07-29T20:49:12.934Z,101153.56
2022-07-29T20:51:14.907Z,101185.88
2022-07-29T20:53:16.620Z,101189.75
2022-07-29T20:55:18.622Z,101190.13
2022-07-29T20:57:38.690Z,101196.16
2022-07-29T20:59:45.586Z,101184.06
2022-07-29T21:01:47.751Z,101199.47
2022-07-29T21:03:49.632Z,101192.88
2022-07-29T21:05:58.078Z,101180.72
2022-07-29T21:07:59.961Z,101192.38
2022-07-29T21:10:01.775Z,101204.25
2022-07-29T21:12:03.935Z,101204.25
2022-07-29T21:14:05.813Z,101205.81
2022-07-29T21:16:09.684Z,101207.63
2022-07-29T21:18:11.751Z,101192.25
2022-07-29T21:20:18.422Z,101208.00
2022-07-29T21:22:20.643Z,101211.31
2022-07-29T21:24:22.344Z,101213.31
2022-07-29T21:26:24.356Z,101201.66
2022-07-29T21:28:26.242Z,101208.75
2022-07-29T21:30:28.071Z,101205.44
2022-07-29T21:32:30.621Z,101180.84
2022-07-29T21:34:32.559Z,101185.38
2022-07-29T21:36:49.622Z,101166.16
2022-07-29T21:38:51.735Z,101194.47
2022-07-29T21:40:53.791Z,101188.81
2022-07-29T21:42:55.541Z,101189.41
2022-07-29T21:44:57.565Z,101184.31
2022-07-29T21:46:59.455Z,101187.19
2022-07-29T21:49:01.359Z,101186.34
2022-07-29T21:51:03.239Z,101178.50
2022-07-29T21:53:05.164Z,101187.66
2022-07-29T21:55:07.948Z,101185.63
2022-07-29T21:57:12.529Z,101193.94
2022-07-29T21:59:14.324Z,101180.19
2022-07-29T22:01:16.180Z,101192.44
2022-07-29T22:03:18.147Z,101189.03
2022-07-29T22:05:20.619Z,101188.94
2022-07-29T22:07:22.354Z,101190.59
2022-07-29T22:09:27.865Z,101189.69
2022-07-29T22:11:29.655Z,101181.28
2022-07-29T22:13:31.450Z,101195.06
2022-07-29T22:15:33.508Z,101189.88
2022-07-29T22:17:35.266Z,101177.94
2022-07-29T22:19:37.006Z,101200.38
2022-07-29T22:21:39.330Z,101197.69
2022-07-29T22:23:41.462Z,101178.47
2022-07-29T22:25:43.229Z,101186.66
2022-07-29T22:27:45.284Z,101200.00
2022-07-29T22:29:47.104Z,101197.59
2022-07-29T22:31:49.108Z,101188.06
2022-07-29T22:33:51.932Z,101164.00
2022-07-29T22:35:53.640Z,101182.59
2022-07-29T22:37:55.358Z,101164.72
2022-07-29T22:39:57.546Z,101177.31
2022-07-29T22:41:59.251Z,101174.84
2022-07-29T22:44:01.106Z,101167.81
2022-07-29T22:46:03.337Z,101170.75
2022-07-29T22:48:05.622Z,101180.28
2022-07-29T22:50:07.759Z,101174.81
2022-07-29T22:52:09.751Z,101183.31
2022-07-29T22:54:11.486Z,101191.28
2022-07-29T22:56:13.511Z,101189.16
2022-07-29T22:58:15.516Z,101200.66
2022-07-29T23:00:17.315Z,101196.88
2022-07-29T23:02:19.053Z,101188.16
2022-07-29T23:04:21.111Z,101200.47
2022-07-29T23:06:22.906Z,101200.19
2022-07-29T23:08:24.608Z,101203.19
2022-07-29T23:10:26.695Z,101196.50
2022-07-29T23:12:28.397Z,101176.50
2022-07-29T23:14:30.156Z,101186.22
2022-07-29T23:16:32.239Z,101164.53
2022-07-29T23:18:34.702Z,101206.22
2022-07-29T23:20:36.559Z,101199.56
2022-07-29T23:22:38.489Z,101192.13
2022-07-29T23:24:40.199Z,101184.25
2022-07-29T23:26:42.654Z,101178.88
2022-07-29T23:28:45.329Z,101194.00
2022-07-29T23:30:47.209Z,101193.31
2022-07-29T23:32:49.040Z,101171.94
2022-07-29T23:34:50.938Z,101172.16
2022-07-29T23:36:52.695Z,101184.56
2022-07-29T23:38:54.427Z,101150.69
2022-07-29T23:40:56.613Z,101154.84
2022-07-29T23:42:58.380Z,101160.44
2022-07-29T23:45:00.157Z,101157.00
2022-07-29T23:47:02.656Z,101131.84